KHKS/HKS METAR and TAF weather

Enter ICAO airport designator
Station Type Date Time Source
KHKS METAR 2020/01/20 09:53 UTC NOAA

KHKS 200953Z AUTO 36008G15KT 10SM CLR 01/M08 A3046 RMK AO2 SLP310 T00111083


Station Type Date Time Source
KHKS Decoded METAR 2020/01/20 09:53 UTC NOAA

HAWKINS FIELD, MS, United States (KHKS) 32-20N 090-13W 108M
Jan 20, 2020 - 04:53 AM EST / 2020.01.20 0953 UTC
Wind: from the N (360 degrees) at 9 MPH (8 KT) gusting to 17 MPH (15 KT):0
Visibility: 10 mile(s):0
Sky conditions: clear
Temperature: 34.0 F (1.1 C)
Windchill: 26 F (-3 C):1
Dew Point: 17.1 F (-8.3 C)
Relative Humidity: 49%
Pressure (altimeter): 30.46 in. Hg (1031 hPa)
ob: KHKS 200953Z AUTO 36008G15KT 10SM CLR 01/M08 A3046 RMK AO2 SLP310 T00111083
cycle: 10

Station Type Date Time Source
KHKS TAF 2020/01/20 06:36 UTC NOAA

TAF KHKS 200534Z 2006/2106 34010KT P6SM SKC
FM201600 01010G16KT P6SM SKC
FM202300 36009KT P6SM SKC

Example: see airport list